Time;durP1;ratioP1;P1;durP2;ratioP2;P2;SDS_P1;SDS_P2;PMS_P1;PMS_P2;Temp;Humidity;BMP_temperature;BMP_pressure;BME280_temperature;BME280_humidity;BME280_pressure;Samples;Min_cycle;Max_cycle;Signal;HPM_P1;HPM_P2
2024/01/02 00:02:35;;;;;;;6.47;2.63;;;9.50;99.90;;;;;;6210225;23;20008;-65
2024/01/02 00:05:21;;;;;;;6.03;2.05;;;9.50;99.90;;;;;;6188800;23;20009;-65
2024/01/02 00:08:07;;;;;;;9.85;2.50;;;9.50;99.90;;;;;;6210446;23;20397;-65
2024/01/02 00:10:53;;;;;;;5.53;2.03;;;9.50;99.90;;;;;;6209768;23;20005;-66
2024/01/02 00:13:39;;;;;;;5.03;2.00;;;9.50;99.90;;;;;;6209256;23;20016;-65
2024/01/02 00:16:25;;;;;;;4.70;2.42;;;9.50;99.90;;;;;;6209457;23;20005;-66
2024/01/02 00:19:11;;;;;;;4.00;2.28;;;9.50;99.90;;;;;;6209778;23;20026;-66
2024/01/02 00:21:57;;;;;;;6.15;2.15;;;9.50;99.90;;;;;;6209708;23;20441;-66
2024/01/02 00:24:43;;;;;;;5.00;2.20;;;9.50;99.90;;;;;;6209253;23;20452;-65
2024/01/02 00:27:29;;;;;;;5.57;2.45;;;9.40;99.90;;;;;;6209735;23;20048;-65
2024/01/02 00:30:15;;;;;;;4.88;2.30;;;9.50;99.90;;;;;;6209425;23;20022;-66
2024/01/02 00:33:03;;;;;;;4.68;3.25;;;9.50;99.90;;;;;;6208200;23;20005;-65
2024/01/02 00:35:49;;;;;;;4.85;1.88;;;9.50;99.90;;;;;;6208993;23;20016;-65
2024/01/02 00:38:35;;;;;;;6.78;2.42;;;9.50;99.90;;;;;;6209522;23;20008;-65
2024/01/02 00:41:21;;;;;;;4.55;2.78;;;9.50;99.90;;;;;;6210721;23;20306;-64
2024/01/02 00:44:08;;;;;;;6.60;2.72;;;9.40;99.90;;;;;;6209386;23;20473;-64
2024/01/02 00:46:54;;;;;;;3.17;1.90;;;9.40;99.90;;;;;;6210683;23;20164;-65
2024/01/02 00:49:40;;;;;;;4.50;2.50;;;9.40;99.90;;;;;;6208785;23;20048;-64
2024/01/02 00:52:26;;;;;;;5.78;2.92;;;9.40;99.90;;;;;;6209729;23;20084;-64
2024/01/02 00:55:12;;;;;;;5.72;2.63;;;9.40;99.90;;;;;;6208954;23;20040;-65
2024/01/02 00:57:58;;;;;;;6.63;3.08;;;9.30;99.90;;;;;;6209325;23;20470;-65
2024/01/02 01:00:44;;;;;;;5.45;2.42;;;9.30;99.90;;;;;;6209236;23;20023;-66
2024/01/02 01:03:30;;;;;;;5.88;2.85;;;9.30;99.90;;;;;;6209151;23;20004;-65
2024/01/02 01:06:16;;;;;;;6.80;2.90;;;9.30;99.90;;;;;;6210015;23;20013;-65
2024/01/02 01:09:02;;;;;;;6.75;3.28;;;9.20;99.90;;;;;;6210914;23;20099;-65
2024/01/02 01:11:48;;;;;;;8.88;3.08;;;9.20;99.90;;;;;;6211613;23;20004;-65
2024/01/02 01:14:35;;;;;;;4.97;2.67;;;9.30;99.90;;;;;;6210193;23;20012;-66
2024/01/02 01:17:20;;;;;;;5.78;2.92;;;9.20;99.90;;;;;;6210199;23;20336;-65
2024/01/02 01:20:08;;;;;;;9.32;3.15;;;9.20;99.90;;;;;;6209680;23;20491;-66
2024/01/02 01:22:54;;;;;;;5.45;2.50;;;9.20;99.90;;;;;;6211062;23;20005;-66
2024/01/02 01:25:40;;;;;;;4.78;2.20;;;9.20;99.90;;;;;;6209890;23;20008;-66
2024/01/02 01:28:27;;;;;;;4.82;2.60;;;9.10;99.90;;;;;;6208742;23;20025;-66
2024/01/02 01:31:13;;;;;;;8.40;2.80;;;9.10;99.90;;;;;;6208922;23;20104;-66
2024/01/02 01:33:59;;;;;;;5.13;2.25;;;9.10;99.90;;;;;;6209522;23;20095;-65
2024/01/02 01:36:45;;;;;;;5.82;2.03;;;9.10;99.90;;;;;;6210101;23;20388;-65
2024/01/02 01:39:31;;;;;;;5.05;1.98;;;9.00;99.90;;;;;;6209199;23;20013;-65
2024/01/02 01:42:17;;;;;;;4.22;1.80;;;9.00;99.90;;;;;;6208985;23;20004;-65
2024/01/02 01:45:03;;;;;;;4.70;1.98;;;9.00;99.90;;;;;;6209993;23;20008;-65
2024/01/02 01:47:50;;;;;;;4.85;2.30;;;8.90;99.90;;;;;;6209369;23;20031;-65
2024/01/02 01:50:36;;;;;;;6.57;1.80;;;8.90;99.90;;;;;;6210960;23;20428;-65
2024/01/02 01:53:23;;;;;;;3.97;1.83;;;8.90;99.90;;;;;;6211661;23;20013;-65
2024/01/02 01:56:09;;;;;;;5.85;2.58;;;8.80;99.90;;;;;;6210346;23;20498;-65
2024/01/02 01:58:56;;;;;;;6.50;2.55;;;8.80;99.90;;;;;;6208134;23;20012;-65
2024/01/02 02:01:45;;;;;;;6.45;2.00;;;8.80;99.90;;;;;;6208474;23;20080;-65
2024/01/02 02:04:34;;;;;;;5.60;2.63;;;8.70;99.90;;;;;;6211452;23;20019;-65
2024/01/02 02:07:20;;;;;;;6.55;2.25;;;8.60;99.90;;;;;;6212658;23;20005;-65
2024/01/02 02:10:09;;;;;;;10.73;3.22;;;8.60;99.90;;;;;;6210297;23;20019;-65
2024/01/02 02:12:59;;;;;;;6.47;2.65;;;8.50;99.90;;;;;;6212400;23;20005;-64
2024/01/02 02:15:48;;;;;;;9.38;3.03;;;8.50;99.90;;;;;;6210172;23;20301;-65
2024/01/02 02:18:34;;;;;;;6.32;2.60;;;8.40;99.90;;;;;;6210885;23;20334;-67
2024/01/02 02:21:20;;;;;;;5.07;2.55;;;8.40;99.90;;;;;;6209658;23;20005;-66
2024/01/02 02:24:06;;;;;;;6.00;2.47;;;8.30;99.90;;;;;;6211975;23;20015;-66
2024/01/02 02:26:56;;;;;;;6.47;2.28;;;8.30;99.90;;;;;;6210756;23;20008;-65
2024/01/02 02:29:42;;;;;;;6.47;2.55;;;8.20;99.90;;;;;;6210451;23;20059;-66
2024/01/02 02:32:28;;;;;;;6.82;3.15;;;8.20;99.90;;;;;;6209323;23;20115;-65
2024/01/02 02:35:14;;;;;;;6.88;2.95;;;8.10;99.90;;;;;;6210180;23;20008;-66
2024/01/02 02:38:00;;;;;;;9.43;2.33;;;8.10;99.90;;;;;;6210005;23;20377;-65
2024/01/02 02:40:46;;;;;;;5.82;2.28;;;8.00;99.90;;;;;;6210196;23;20009;-65
2024/01/02 02:43:32;;;;;;;9.52;3.15;;;8.00;99.90;;;;;;6222844;23;20068;-65
2024/01/02 02:46:18;;;;;;;9.38;2.33;;;7.90;99.90;;;;;;6235320;23;20067;-64
2024/01/02 02:49:04;;;;;;;8.43;2.38;;;7.80;99.90;;;;;;6219463;23;20021;-65
2024/01/02 02:51:49;;;;;;;8.35;2.25;;;7.80;99.90;;;;;;6211237;23;20009;-65
2024/01/02 02:54:35;;;;;;;4.88;2.30;;;7.70;99.90;;;;;;6210891;23;20027;-66
2024/01/02 02:57:21;;;;;;;5.20;2.33;;;7.70;99.90;;;;;;6211949;23;20103;-64
2024/01/02 03:00:09;;;;;;;7.57;3.08;;;7.60;99.90;;;;;;6210042;23;20011;-64
2024/01/02 03:02:56;;;;;;;10.88;3.33;;;7.60;99.90;;;;;;6211068;23;20071;-64
2024/01/02 03:05:42;;;;;;;13.20;2.85;;;7.60;99.90;;;;;;6187688;23;20340;-64
2024/01/02 03:08:28;;;;;;;8.88;2.35;;;7.60;99.90;;;;;;6188655;23;20016;-64
2024/01/02 03:11:14;;;;;;;7.65;2.50;;;7.60;99.90;;;;;;6212188;23;20050;-65
2024/01/02 03:14:00;;;;;;;6.68;2.97;;;7.50;99.90;;;;;;6209715;23;20091;-65
2024/01/02 03:16:46;;;;;;;9.10;2.75;;;7.50;99.90;;;;;;6210652;23;20015;-65
2024/01/02 03:19:31;;;;;;;6.03;2.80;;;7.50;99.90;;;;;;6210748;23;20052;-65
2024/01/02 03:22:17;;;;;;;10.18;2.78;;;7.40;99.90;;;;;;6210881;23;20011;-64
2024/01/02 03:25:05;;;;;;;12.20;4.70;;;7.40;99.90;;;;;;6210677;23;20043;-65
2024/01/02 03:27:50;;;;;;;5.82;2.45;;;7.40;99.90;;;;;;6209672;23;20016;-64
2024/01/02 03:30:40;;;;;;;7.68;2.45;;;7.30;99.90;;;;;;6210378;23;20499;-65
2024/01/02 03:33:27;;;;;;;6.70;2.63;;;7.30;99.90;;;;;;6209907;23;20008;-64
2024/01/02 03:36:18;;;;;;;12.10;3.67;;;7.30;99.90;;;;;;6211609;23;20429;-64
2024/01/02 03:39:05;;;;;;;8.18;3.05;;;7.20;99.90;;;;;;6211211;23;20009;-64
2024/01/02 03:41:51;;;;;;;11.00;5.38;;;7.20;99.90;;;;;;6211035;23;20483;-64
2024/01/02 03:44:37;;;;;;;13.90;3.40;;;7.20;99.90;;;;;;6209119;23;20453;-65
2024/01/02 03:47:22;;;;;;;11.77;3.90;;;7.20;99.90;;;;;;6210326;23;20015;-65
2024/01/02 03:50:09;;;;;;;10.18;4.28;;;7.20;99.90;;;;;;6210288;23;20020;-64
2024/01/02 03:52:54;;;;;;;10.80;4.32;;;7.10;99.90;;;;;;6211581;23;20008;-65
2024/01/02 03:55:40;;;;;;;7.55;3.60;;;7.10;99.90;;;;;;6209344;23;20051;-65
2024/01/02 03:58:27;;;;;;;9.90;4.35;;;7.10;99.90;;;;;;6210378;23;20004;-66
2024/01/02 04:01:13;;;;;;;9.30;4.28;;;7.00;99.90;;;;;;6210840;23;20008;-65
2024/01/02 04:03:59;;;;;;;7.65;3.42;;;6.90;99.90;;;;;;6209699;23;20052;-64
2024/01/02 04:06:46;;;;;;;8.02;3.03;;;7.00;99.90;;;;;;6209982;23;20009;-64
2024/01/02 04:09:32;;;;;;;10.43;3.42;;;6.90;99.90;;;;;;6211792;23;20028;-64
2024/01/02 04:12:18;;;;;;;8.75;3.53;;;6.90;99.90;;;;;;6209677;23;20004;-64
2024/01/02 04:15:04;;;;;;;6.75;3.60;;;6.90;99.90;;;;;;6211460;23;20349;-65
2024/01/02 04:17:50;;;;;;;8.30;3.55;;;6.80;99.90;;;;;;6211761;23;20009;-65
2024/01/02 04:20:36;;;;;;;10.50;3.60;;;6.80;99.90;;;;;;6208952;23;20028;-65
2024/01/02 04:23:22;;;;;;;8.63;3.30;;;6.70;99.90;;;;;;6211236;23;20044;-65
2024/01/02 04:26:08;;;;;;;9.07;3.35;;;6.80;99.90;;;;;;6210082;23;20100;-64
2024/01/02 04:28:54;;;;;;;7.47;3.38;;;6.80;99.90;;;;;;6209435;23;20396;-65
2024/01/02 04:31:40;;;;;;;10.20;3.45;;;6.70;99.90;;;;;;6209517;23;20406;-64
2024/01/02 04:34:26;;;;;;;8.48;2.90;;;6.70;99.90;;;;;;6210981;23;20013;-63
2024/01/02 04:37:12;;;;;;;15.15;4.07;;;6.80;99.90;;;;;;6207504;23;20013;-64
2024/01/02 04:39:58;;;;;;;7.50;2.83;;;6.70;99.90;;;;;;6209263;23;20012;-64
2024/01/02 04:42:44;;;;;;;14.77;3.33;;;6.70;99.90;;;;;;6209429;23;20009;-66
2024/01/02 04:45:30;;;;;;;7.90;3.50;;;6.60;99.90;;;;;;6207860;23;20091;-66
2024/01/02 04:48:16;;;;;;;9.15;2.88;;;6.60;99.90;;;;;;6209057;23;20021;-66
2024/01/02 04:51:02;;;;;;;7.78;2.60;;;6.60;99.90;;;;;;6209627;23;20009;-66
2024/01/02 04:53:48;;;;;;;10.32;2.70;;;6.60;99.90;;;;;;6211128;23;20102;-64
2024/01/02 04:56:34;;;;;;;5.90;3.13;;;6.60;99.90;;;;;;6189007;23;20058;-65
2024/01/02 04:59:20;;;;;;;4.55;2.05;;;6.60;99.90;;;;;;6209586;23;20157;-66
2024/01/02 05:02:06;;;;;;;10.35;3.00;;;6.60;99.90;;;;;;6188081;23;20013;-65
2024/01/02 05:04:51;;;;;;;6.80;3.60;;;6.50;99.90;;;;;;6209110;23;20345;-65
2024/01/02 05:07:37;;;;;;;5.43;2.65;;;6.60;99.90;;;;;;6209310;23;20015;-65
2024/01/02 05:10:23;;;;;;;6.35;3.15;;;6.60;99.90;;;;;;6187887;23;20047;-65
2024/01/02 05:13:09;;;;;;;8.35;3.33;;;6.50;99.90;;;;;;6209197;23;20019;-65
2024/01/02 05:15:55;;;;;;;8.50;3.00;;;6.50;99.90;;;;;;6209620;23;20019;-65
2024/01/02 05:18:41;;;;;;;8.95;3.13;;;6.50;99.90;;;;;;6210792;23;20040;-66
2024/01/02 05:21:27;;;;;;;9.18;2.60;;;6.50;99.90;;;;;;6208992;23;20008;-65
2024/01/02 05:24:13;;;;;;;6.53;2.70;;;6.50;99.90;;;;;;6209361;23;20012;-65
2024/01/02 05:26:59;;;;;;;6.20;2.15;;;6.50;99.90;;;;;;6208466;23;20066;-65
2024/01/02 05:29:45;;;;;;;9.55;2.90;;;6.50;99.90;;;;;;6208444;23;20020;-66
2024/01/02 05:32:31;;;;;;;8.15;2.45;;;6.40;99.90;;;;;;6208872;23;20004;-66
2024/01/02 05:35:17;;;;;;;10.80;2.58;;;6.50;99.90;;;;;;6207459;23;20433;-66
2024/01/02 05:38:03;;;;;;;5.93;2.30;;;6.40;99.90;;;;;;6209953;23;20028;-66
2024/01/02 05:40:49;;;;;;;6.63;2.97;;;6.40;99.90;;;;;;6213076;23;20013;-66
2024/01/02 05:43:35;;;;;;;7.10;2.30;;;6.40;99.90;;;;;;6211227;23;20012;-66
2024/01/02 05:46:21;;;;;;;7.68;2.65;;;6.40;99.90;;;;;;6210811;23;20327;-66
2024/01/02 05:49:07;;;;;;;8.82;2.95;;;6.40;99.90;;;;;;6212612;23;20350;-66
2024/01/02 05:51:52;;;;;;;6.28;3.00;;;6.40;99.90;;;;;;6215522;23;20391;-66
2024/01/02 05:54:38;;;;;;;11.05;3.10;;;6.40;99.90;;;;;;6231375;23;20072;-65
2024/01/02 05:57:24;;;;;;;9.10;3.25;;;6.40;99.90;;;;;;6218440;23;20009;-66
2024/01/02 06:00:11;;;;;;;8.80;2.45;;;6.40;99.90;;;;;;6213848;23;20009;-67
2024/01/02 06:02:57;;;;;;;9.48;2.63;;;6.40;99.90;;;;;;6210549;23;20016;-65
2024/01/02 06:05:43;;;;;;;5.38;2.35;;;6.40;99.90;;;;;;6211810;23;20008;-65
2024/01/02 06:08:29;;;;;;;6.15;2.72;;;6.40;99.90;;;;;;6211650;23;20020;-65
2024/01/02 06:11:15;;;;;;;7.03;2.50;;;6.40;99.90;;;;;;6212133;23;20008;-65
2024/01/02 06:14:01;;;;;;;8.63;2.78;;;6.40;99.90;;;;;;6210476;23;20087;-65
2024/01/02 06:16:47;;;;;;;6.28;3.15;;;6.40;99.90;;;;;;6211946;23;20036;-65
2024/01/02 06:19:33;;;;;;;15.75;3.30;;;6.40;99.90;;;;;;6212811;23;20017;-65
2024/01/02 06:22:19;;;;;;;8.70;4.30;;;6.40;99.90;;;;;;6211720;23;20009;-65
2024/01/02 06:25:10;;;;;;;7.90;2.95;;;6.40;99.90;;;;;;6210972;23;20075;-64
2024/01/02 06:27:56;;;;;;;5.47;2.35;;;6.40;99.90;;;;;;6209685;23;20016;-65
2024/01/02 06:30:42;;;;;;;5.70;2.75;;;6.40;99.90;;;;;;6210865;23;20095;-64
2024/01/02 06:33:28;;;;;;;8.45;3.58;;;6.40;99.90;;;;;;6212639;23;20019;-65
2024/01/02 06:36:14;;;;;;;7.65;2.80;;;6.40;99.90;;;;;;6209995;23;20004;-65
2024/01/02 06:39:00;;;;;;;9.90;4.22;;;6.40;99.90;;;;;;6211684;23;20011;-65
2024/01/02 06:41:46;;;;;;;5.15;2.58;;;6.40;99.90;;;;;;6209638;23;20084;-66
2024/01/02 06:44:32;;;;;;;7.28;2.38;;;6.40;99.90;;;;;;6211565;23;20446;-66
2024/01/02 06:47:18;;;;;;;7.68;2.58;;;6.40;99.90;;;;;;6211954;23;20341;-65
2024/01/02 06:50:05;;;;;;;8.35;3.13;;;6.40;99.90;;;;;;6211959;23;20406;-65
2024/01/02 06:52:51;;;;;;;6.40;2.67;;;6.40;99.90;;;;;;6211115;23;20349;-65
2024/01/02 06:55:37;;;;;;;8.63;3.05;;;6.40;99.90;;;;;;6210650;23;20009;-65
2024/01/02 06:58:23;;;;;;;7.07;2.60;;;6.40;99.90;;;;;;6189024;23;20016;-65
2024/01/02 07:01:10;;;;;;;6.95;2.10;;;6.40;99.90;;;;;;6211917;23;20039;-65
2024/01/02 07:03:55;;;;;;;5.45;2.55;;;6.40;99.90;;;;;;6209379;23;20016;-65
2024/01/02 07:06:41;;;;;;;10.25;3.28;;;6.40;99.90;;;;;;6210804;23;20008;-65
2024/01/02 07:09:27;;;;;;;7.35;2.35;;;6.40;99.90;;;;;;6190679;23;20020;-66
2024/01/02 07:12:13;;;;;;;6.00;2.75;;;6.40;99.90;;;;;;6189291;23;20008;-66
2024/01/02 07:14:59;;;;;;;8.07;2.72;;;6.40;99.90;;;;;;6209489;23;20111;-66
2024/01/02 07:17:45;;;;;;;7.15;2.30;;;6.40;99.90;;;;;;6209739;23;20009;-67
2024/01/02 07:20:31;;;;;;;4.30;2.40;;;6.50;99.90;;;;;;6210424;23;20083;-66
2024/01/02 07:23:18;;;;;;;7.38;2.50;;;6.50;99.90;;;;;;6209933;23;20095;-66
2024/01/02 07:26:04;;;;;;;5.85;2.50;;;6.50;99.90;;;;;;6211039;23;20009;-65
2024/01/02 07:28:50;;;;;;;10.02;2.97;;;6.50;99.90;;;;;;6208976;23;20025;-65
2024/01/02 07:31:36;;;;;;;8.30;3.28;;;6.50;99.90;;;;;;6209331;23;20028;-66
2024/01/02 07:34:22;;;;;;;6.63;2.67;;;6.60;99.90;;;;;;6210269;23;20392;-64
2024/01/02 07:37:09;;;;;;;5.32;2.40;;;6.60;99.90;;;;;;6210961;23;20016;-63
2024/01/02 07:39:55;;;;;;;7.03;2.60;;;6.60;99.90;;;;;;6211668;23;20038;-63
2024/01/02 07:42:41;;;;;;;5.40;2.08;;;6.70;99.90;;;;;;6211189;23;20013;-65
2024/01/02 07:45:28;;;;;;;5.53;2.10;;;6.70;99.90;;;;;;6209622;23;20012;-64
2024/01/02 07:48:14;;;;;;;4.82;2.65;;;6.70;99.90;;;;;;6210080;23;20027;-64
2024/01/02 07:51:00;;;;;;;5.85;2.63;;;6.70;99.90;;;;;;6214360;22;20008;-64
2024/01/02 07:53:45;;;;;;;7.00;2.45;;;6.80;99.90;;;;;;6211127;23;20374;-64
2024/01/02 07:56:32;;;;;;;5.22;2.78;;;6.80;99.90;;;;;;6210945;23;20024;-64
2024/01/02 07:59:21;;;;;;;11.70;2.60;;;6.80;99.90;;;;;;6211837;23;20008;-64
2024/01/02 08:02:07;;;;;;;12.65;3.45;;;6.80;99.90;;;;;;6208777;23;20012;-65
2024/01/02 08:04:53;;;;;;;5.53;2.85;;;6.80;99.90;;;;;;6210819;23;20012;-64
2024/01/02 08:07:39;;;;;;;4.55;2.20;;;6.80;99.90;;;;;;6213215;23;20016;-64
2024/01/02 08:10:25;;;;;;;5.93;3.03;;;6.90;99.90;;;;;;6210305;23;20012;-64
2024/01/02 08:13:10;;;;;;;5.70;2.63;;;6.90;99.90;;;;;;6210252;23;20032;-64
2024/01/02 08:15:56;;;;;;;5.82;2.67;;;6.90;99.90;;;;;;6190337;23;20048;-64
2024/01/02 08:18:43;;;;;;;8.48;2.70;;;7.00;99.90;;;;;;6208526;23;20021;-64
2024/01/02 08:21:29;;;;;;;6.55;2.47;;;7.10;99.90;;;;;;6188978;23;20012;-67
2024/01/02 08:24:15;;;;;;;8.13;2.67;;;7.10;99.90;;;;;;6210806;23;20009;-68
2024/01/02 08:27:01;;;;;;;5.93;3.15;;;7.10;99.90;;;;;;6210635;23;20012;-68
2024/01/02 08:29:48;;;;;;;10.20;3.42;;;7.10;99.90;;;;;;6186603;23;20020;-68
2024/01/02 08:32:34;;;;;;;5.70;2.95;;;7.20;99.90;;;;;;6210211;23;20009;-68
2024/01/02 08:35:20;;;;;;;5.40;2.30;;;7.20;99.90;;;;;;6209591;23;20078;-67
2024/01/02 08:38:06;;;;;;;6.68;2.83;;;7.20;99.90;;;;;;6208864;23;20430;-67
2024/01/02 08:40:52;;;;;;;10.25;2.33;;;7.20;99.90;;;;;;6206830;23;20012;-68
2024/01/02 08:43:38;;;;;;;7.40;3.33;;;7.20;99.90;;;;;;6209285;23;20458;-67
2024/01/02 08:46:24;;;;;;;5.55;2.53;;;7.30;99.90;;;;;;6208799;23;20336;-69
2024/01/02 08:49:12;;;;;;;5.43;2.72;;;7.30;99.90;;;;;;6210811;23;20017;-70
2024/01/02 08:51:58;;;;;;;6.05;2.28;;;7.30;99.90;;;;;;6209896;23;20443;-68
2024/01/02 08:54:44;;;;;;;9.50;2.35;;;7.30;99.90;;;;;;6209289;23;20363;-67
2024/01/02 08:57:31;;;;;;;5.43;2.42;;;7.30;99.90;;;;;;6211353;23;20011;-68
2024/01/02 09:00:17;;;;;;;5.18;2.13;;;7.30;99.90;;;;;;6220946;23;20009;-69
2024/01/02 09:03:04;;;;;;;7.13;2.33;;;7.30;99.90;;;;;;6224813;23;20008;-70
2024/01/02 09:05:49;;;;;;;5.30;2.20;;;7.40;99.90;;;;;;6230443;23;20008;-71
2024/01/02 09:08:35;;;;;;;4.15;2.03;;;7.40;99.90;;;;;;6197855;23;20023;-71
2024/01/02 09:11:21;;;;;;;6.45;2.13;;;7.40;99.90;;;;;;6207812;23;20018;-70
2024/01/02 09:14:07;;;;;;;3.97;2.17;;;7.40;99.90;;;;;;6188420;23;20445;-70
2024/01/02 09:16:53;;;;;;;4.72;2.05;;;7.40;99.90;;;;;;6209258;23;20332;-70
2024/01/02 09:19:39;;;;;;;4.28;1.80;;;7.50;99.90;;;;;;6209107;23;20349;-70
2024/01/02 09:22:25;;;;;;;3.78;1.85;;;7.50;99.90;;;;;;6208056;23;20015;-70
2024/01/02 09:25:14;;;;;;;8.85;2.40;;;7.50;99.90;;;;;;6208609;23;20000;-69
2024/01/02 09:28:01;;;;;;;6.82;3.00;;;7.50;99.90;;;;;;6209659;23;20072;-70
2024/01/02 09:30:47;;;;;;;5.82;2.17;;;7.60;99.90;;;;;;6212114;23;20063;-71
2024/01/02 09:33:33;;;;;;;5.30;1.90;;;7.60;99.90;;;;;;6209880;23;20449;-71
2024/01/02 09:36:19;;;;;;;6.35;1.88;;;7.60;99.90;;;;;;6187637;23;20009;-71
2024/01/02 09:39:06;;;;;;;3.72;1.77;;;7.60;99.90;;;;;;6189165;23;20016;-70
2024/01/02 09:42:32;;;;;;;2.95;2.08;;;7.60;99.90;;;;;;6208697;23;20091;-70
2024/01/02 09:45:41;;;;;;;4.03;1.88;;;7.60;99.90;;;;;;6209143;23;20020;-70
2024/01/02 09:48:33;;;;;;;4.82;1.92;;;7.60;99.90;;;;;;6211638;23;20119;-70
2024/01/02 09:51:36;;;;;;;7.47;2.35;;;7.70;99.90;;;;;;6206709;23;20008;-70
2024/01/02 09:54:41;;;;;;;6.03;2.20;;;7.60;99.90;;;;;;6207811;23;20349;-70
2024/01/02 09:57:35;;;;;;;3.75;1.80;;;7.70;99.90;;;;;;6190242;23;20459;-72
2024/01/02 10:00:44;;;;;;;5.30;2.28;;;7.70;99.90;;;;;;6211192;23;20036;-72
2024/01/02 10:03:50;;;;;;;5.55;2.20;;;7.70;99.90;;;;;;6209365;23;20044;-72
2024/01/02 10:07:12;;;;;;;4.82;2.63;;;7.70;99.90;;;;;;6156736;23;20013;-73
2024/01/02 10:10:24;;;;;;;4.20;2.42;;;7.70;99.90;;;;;;6209944;23;20027;-72
2024/01/02 10:13:37;;;;;;;4.63;2.10;;;7.70;99.90;;;;;;6211996;23;20016;-72
2024/01/02 10:17:03;;;;;;;6.72;2.92;;;7.70;99.90;;;;;;6208845;23;20028;-73
2024/01/02 10:20:08;;;;;;;3.00;1.85;;;7.70;99.90;;;;;;6207117;23;20052;-70
2024/01/02 10:23:18;;;;;;;6.75;2.53;;;7.70;99.90;;;;;;6209358;23;20088;-70
2024/01/02 10:26:07;;;;;;;3.83;2.00;;;7.70;99.90;;;;;;6209822;23;20060;-71
2024/01/02 10:29:03;;;;;;;3.03;1.83;;;7.70;99.90;;;;;;6211191;23;20063;-69
2024/01/02 10:32:07;;;;;;;4.30;2.65;;;7.80;99.90;;;;;;6188904;23;20329;-70
2024/01/02 10:35:08;;;;;;;5.50;1.90;;;7.80;99.90;;;;;;6210786;23;20035;-69
2024/01/02 10:38:05;;;;;;;6.00;1.90;;;7.80;99.90;;;;;;6210225;23;20008;-69
2024/01/02 10:41:09;;;;;;;6.82;2.80;;;7.80;99.90;;;;;;6210869;23;20027;-69
2024/01/02 10:44:24;;;;;;;3.05;1.65;;;7.80;99.90;;;;;;6211268;23;20009;-69
2024/01/02 10:47:32;;;;;;;4.57;2.30;;;7.80;99.90;;;;;;6168375;23;20001;-70
2024/01/02 10:50:29;;;;;;;4.47;2.13;;;7.80;99.90;;;;;;6210902;23;20071;-69
2024/01/02 10:53:44;;;;;;;7.35;3.28;;;7.80;99.90;;;;;;6211660;23;20357;-69
2024/01/02 10:56:56;;;;;;;4.70;2.28;;;7.80;99.90;;;;;;6211504;23;20567;-70
2024/01/02 11:00:21;;;;;;;5.75;2.28;;;7.80;99.90;;;;;;6209436;23;20009;-69
2024/01/02 11:03:10;;;;;;;5.25;2.25;;;7.80;99.90;;;;;;6062112;23;20039;-69
2024/01/02 11:06:08;;;;;;;3.45;1.90;;;7.90;99.90;;;;;;6061707;23;20015;-69
2024/01/02 11:09:07;;;;;;;3.38;1.67;;;7.90;99.90;;;;;;6061880;23;20357;-69
2024/01/02 11:11:57;;;;;;;3.58;1.73;;;7.90;99.90;;;;;;6063626;23;20100;-69
2024/01/02 11:14:44;;;;;;;5.15;2.05;;;7.90;99.90;;;;;;6061320;23;20539;-69
2024/01/02 11:17:31;;;;;;;5.43;2.33;;;7.90;99.90;;;;;;6056958;23;20014;-69
2024/01/02 11:20:20;;;;;;;2.97;1.65;;;7.90;99.90;;;;;;6063440;23;20023;-69
2024/01/02 11:23:13;;;;;;;3.05;1.67;;;8.00;99.90;;;;;;6061386;23;20010;-70
2024/01/02 11:26:13;;;;;;;3.55;2.00;;;7.90;99.90;;;;;;6061769;23;20015;-69
2024/01/02 11:29:03;;;;;;;2.50;1.70;;;8.00;99.90;;;;;;6058129;23;20018;-69
2024/01/02 11:31:52;;;;;;;2.92;1.85;;;8.00;99.90;;;;;;6056618;23;20090;-69
2024/01/02 11:34:59;;;;;;;4.60;2.28;;;8.00;99.90;;;;;;6056840;23;20427;-69
2024/01/02 11:38:07;;;;;;;5.50;2.20;;;8.00;99.90;;;;;;6059661;23;20037;-69
2024/01/02 11:41:10;;;;;;;2.15;1.70;;;7.90;99.90;;;;;;6207764;23;20051;-69
2024/01/02 11:44:07;;;;;;;4.32;2.53;;;8.00;99.90;;;;;;6207922;23;20036;-69
2024/01/02 11:47:04;;;;;;;4.95;2.05;;;8.00;99.90;;;;;;6203825;23;20008;-69
2024/01/02 11:49:57;;;;;;;3.95;1.85;;;8.00;99.90;;;;;;6203470;23;20020;-69
2024/01/02 11:52:57;;;;;;;3.47;2.08;;;8.00;99.90;;;;;;6206054;23;20012;-69
2024/01/02 11:55:46;;;;;;;3.08;2.40;;;8.10;99.90;;;;;;6209331;23;20401;-69
2024/01/02 11:58:50;;;;;;;3.58;2.10;;;8.00;99.90;;;;;;6208135;23;20464;-69
2024/01/02 12:02:09;;;;;;;3.55;1.90;;;8.10;99.90;;;;;;6208781;23;20439;-69
2024/01/02 12:05:10;;;;;;;5.03;2.15;;;8.20;99.90;;;;;;6088310;23;20010;-69
2024/01/02 12:07:57;;;;;;;4.32;1.95;;;8.20;99.90;;;;;;6071900;23;20018;-68
2024/01/02 12:10:48;;;;;;;3.90;2.30;;;8.10;99.90;;;;;;6068441;23;20042;-69
2024/01/02 12:13:58;;;;;;;6.95;2.97;;;8.10;99.90;;;;;;6062876;23;20011;-69
2024/01/02 12:16:47;;;;;;;11.32;3.25;;;8.20;99.90;;;;;;6060514;23;20432;-69
2024/01/02 12:19:36;;;;;;;5.38;2.75;;;8.20;99.90;;;;;;6037434;23;20034;-69
2024/01/02 12:22:22;;;;;;;4.25;2.35;;;8.20;99.90;;;;;;6032076;23;20117;-69
2024/01/02 12:25:10;;;;;;;6.47;3.03;;;8.20;99.90;;;;;;6032339;23;20033;-69
2024/01/02 12:28:00;;;;;;;5.15;2.30;;;8.20;99.90;;;;;;6033217;23;20022;-68
2024/01/02 12:30:53;;;;;;;4.32;2.08;;;8.20;99.90;;;;;;6032605;23;20067;-69
2024/01/02 12:33:46;;;;;;;4.95;2.40;;;8.20;99.90;;;;;;6032456;23;20348;-68
2024/01/02 12:36:51;;;;;;;6.88;2.83;;;8.20;99.90;;;;;;6031805;23;20070;-68
2024/01/02 12:39:39;;;;;;;5.90;2.40;;;8.20;99.90;;;;;;6030390;23;20012;-63
2024/01/02 12:42:30;;;;;;;5.13;2.80;;;8.20;99.90;;;;;;6179389;23;20009;-62
2024/01/02 12:45:22;;;;;;;4.63;2.78;;;8.20;99.90;;;;;;6179850;23;20139;-62
2024/01/02 12:48:09;;;;;;;4.38;2.58;;;8.30;99.90;;;;;;6178940;23;20024;-62
2024/01/02 12:50:58;;;;;;;6.93;2.83;;;8.20;99.90;;;;;;6179493;23;20016;-62
2024/01/02 12:53:47;;;;;;;4.00;2.33;;;8.20;99.90;;;;;;6178978;23;20067;-62
2024/01/02 12:56:39;;;;;;;2.80;2.10;;;8.20;99.90;;;;;;6179854;23;20052;-62
2024/01/02 12:59:30;;;;;;;4.35;2.33;;;8.30;99.90;;;;;;6180156;23;20012;-62
2024/01/02 13:02:16;;;;;;;5.07;2.95;;;8.30;99.90;;;;;;6180555;23;20013;-62
2024/01/02 13:05:04;;;;;;;4.18;2.63;;;8.30;99.90;;;;;;6181152;23;20009;-62
2024/01/02 13:07:50;;;;;;;4.18;2.60;;;8.30;99.90;;;;;;6180686;23;20016;-62
2024/01/02 13:10:37;;;;;;;4.95;2.20;;;8.30;99.90;;;;;;6181125;23;20012;-62
2024/01/02 13:13:23;;;;;;;5.50;2.22;;;8.20;99.90;;;;;;6180294;23;20016;-62
2024/01/02 13:16:10;;;;;;;3.53;2.30;;;8.30;99.90;;;;;;6180766;23;20020;-62
2024/01/02 13:18:56;;;;;;;5.70;2.63;;;8.30;99.90;;;;;;6193907;23;20036;-63
2024/01/02 13:21:42;;;;;;;4.80;2.22;;;8.20;99.90;;;;;;6208457;23;20579;-63
2024/01/02 13:24:49;;;;;;;5.43;2.15;;;8.30;99.90;;;;;;6188797;23;20005;-62
2024/01/02 13:27:35;;;;;;;4.93;2.00;;;8.20;99.90;;;;;;6189117;23;20253;-62
2024/01/02 13:30:41;;;;;;;4.35;2.30;;;8.30;99.90;;;;;;6209196;23;20083;-62
2024/01/02 13:33:40;;;;;;;4.18;2.20;;;8.30;99.90;;;;;;6210302;23;20012;-62
2024/01/02 13:36:26;;;;;;;3.22;2.35;;;8.30;99.90;;;;;;6209680;23;20043;-62
2024/01/02 13:39:31;;;;;;;5.38;2.63;;;8.30;99.90;;;;;;6209914;23;20012;-62
2024/01/02 13:42:29;;;;;;;3.50;2.25;;;8.30;99.90;;;;;;6210322;23;20011;-62
2024/01/02 13:45:25;;;;;;;4.80;2.28;;;8.30;99.90;;;;;;6210047;23;20417;-62
2024/01/02 13:48:13;;;;;;;4.03;2.45;;;8.30;99.90;;;;;;6208244;23;20021;-62
2024/01/02 13:51:03;;;;;;;4.70;2.20;;;8.30;99.90;;;;;;6203060;23;20075;-62
2024/01/02 13:54:03;;;;;;;4.55;2.33;;;8.30;99.90;;;;;;6208837;23;20015;-62
2024/01/02 13:56:50;;;;;;;5.25;2.28;;;8.40;99.90;;;;;;6208900;23;20420;-62
2024/01/02 13:59:36;;;;;;;3.85;2.22;;;8.40;99.90;;;;;;6207471;23;20013;-62
2024/01/02 14:02:27;;;;;;;5.72;2.50;;;8.40;99.90;;;;;;6210068;23;20386;-63
2024/01/02 14:05:14;;;;;;;4.63;2.40;;;8.40;99.90;;;;;;6211799;23;20505;-63
2024/01/02 14:08:00;;;;;;;3.10;2.13;;;8.40;99.90;;;;;;6210859;23;20013;-62
2024/01/02 14:10:47;;;;;;;3.50;2.13;;;8.40;99.90;;;;;;6211376;23;20009;-62
2024/01/02 14:13:35;;;;;;;3.13;1.95;;;8.40;99.90;;;;;;6211944;23;20001;-62
2024/01/02 14:16:23;;;;;;;3.67;2.60;;;8.40;99.90;;;;;;6212127;23;20019;-69
2024/01/02 14:19:09;;;;;;;3.97;2.30;;;8.40;99.90;;;;;;6208823;23;20048;-67
2024/01/02 14:22:08;;;;;;;4.55;2.53;;;8.40;99.90;;;;;;6211675;23;20101;-65
2024/01/02 14:25:32;;;;;;;16.40;7.35;;;8.40;99.90;;;;;;6212364;23;20008;-66
2024/01/02 14:28:24;;;;;;;6.90;3.58;;;8.40;99.90;;;;;;6061060;23;20074;-62
2024/01/02 14:31:29;;;;;;;5.30;3.38;;;8.40;99.90;;;;;;6189138;23;20445;-63
2024/01/02 14:34:24;;;;;;;5.28;3.10;;;8.40;99.90;;;;;;6210979;23;20031;-62
2024/01/02 14:37:17;;;;;;;4.75;2.83;;;8.40;99.90;;;;;;6210442;23;20013;-64
2024/01/02 14:40:14;;;;;;;7.15;2.78;;;8.40;99.90;;;;;;6210239;23;20008;-64
2024/01/02 14:43:37;;;;;;;4.45;2.25;;;8.40;99.90;;;;;;6209586;23;20012;-61
2024/01/02 14:46:38;;;;;;;5.97;2.30;;;8.40;99.90;;;;;;6210598;23;20091;-61
2024/01/02 14:49:30;;;;;;;4.13;1.98;;;8.40;99.90;;;;;;6212404;23;20119;-61
2024/01/02 14:52:35;;;;;;;3.22;2.10;;;8.40;99.90;;;;;;6211999;23;20009;-61
2024/01/02 14:56:13;;;;;;;3.50;1.85;;;8.40;99.90;;;;;;6184016;23;20012;-61